Time;durP1;ratioP1;P1;durP2;ratioP2;P2;SDS_P1;SDS_P2;PMS_P1;PMS_P2;Temp;Humidity;BMP_temperature;BMP_pressure;BME280_temperature;BME280_humidity;BME280_pressure;Samples;Min_cycle;Max_cycle;Signal;HPM_P1;HPM_P2
2022/08/14 00:01:24;;;;;;;5.28;2.80;;;24.60;72.50;;;;;;5056841;28;20074;-73
2022/08/14 00:03:50;;;;;;;4.60;3.25;;;24.60;72.50;;;;;;5056598;28;20100;-72
2022/08/14 00:06:16;;;;;;;4.68;3.05;;;24.50;72.40;;;;;;5056522;28;20488;-72
2022/08/14 00:08:41;;;;;;;8.07;3.40;;;24.50;72.90;;;;;;5056702;28;20074;-72
2022/08/14 00:11:07;;;;;;;6.35;3.35;;;24.50;73.00;;;;;;5056665;28;20041;-74
2022/08/14 00:13:34;;;;;;;5.95;3.17;;;24.40;73.60;;;;;;5056583;28;20097;-73
2022/08/14 00:16:00;;;;;;;6.07;3.25;;;24.40;73.50;;;;;;5056316;28;20056;-73
2022/08/14 00:18:27;;;;;;;4.97;2.95;;;24.30;73.40;;;;;;5056343;28;20419;-72
2022/08/14 00:20:54;;;;;;;4.22;2.90;;;24.30;73.20;;;;;;5056536;28;20166;-72
2022/08/14 00:23:20;;;;;;;7.43;4.90;;;24.30;73.20;;;;;;5056415;28;20424;-72
2022/08/14 00:25:48;;;;;;;6.40;3.20;;;24.20;73.30;;;;;;5056206;28;20099;-73
2022/08/14 00:28:14;;;;;;;7.28;3.45;;;24.20;73.40;;;;;;5056630;28;20021;-72
2022/08/14 00:30:40;;;;;;;9.40;3.10;;;24.20;73.60;;;;;;5056257;28;20025;-73
2022/08/14 00:33:06;;;;;;;5.55;3.10;;;24.10;73.30;;;;;;5056086;28;20086;-73
2022/08/14 00:35:32;;;;;;;6.00;3.17;;;24.10;73.60;;;;;;5056223;28;20104;-73
2022/08/14 00:37:59;;;;;;;5.75;3.22;;;24.10;73.70;;;;;;5056005;28;20036;-74
2022/08/14 00:40:25;;;;;;;5.40;2.83;;;24.10;73.80;;;;;;5055893;28;20502;-73
2022/08/14 00:42:51;;;;;;;7.03;3.25;;;24.00;73.90;;;;;;5055876;28;20071;-73
2022/08/14 00:45:17;;;;;;;7.03;3.30;;;24.00;74.00;;;;;;5054356;28;20051;-72
2022/08/14 00:47:45;;;;;;;5.15;3.00;;;24.00;74.10;;;;;;5056144;28;20032;-73
2022/08/14 00:50:16;;;;;;;4.70;3.00;;;24.00;74.90;;;;;;5056007;28;20017;-73
2022/08/14 00:52:44;;;;;;;6.07;3.15;;;24.00;74.50;;;;;;5056024;28;20024;-72
2022/08/14 00:55:10;;;;;;;8.38;3.20;;;24.00;74.10;;;;;;5054377;28;20120;-72
2022/08/14 00:57:37;;;;;;;5.88;3.22;;;24.00;74.10;;;;;;5054265;28;20084;-72
2022/08/14 01:00:13;;;;;;;4.93;3.33;;;24.00;74.20;;;;;;5055543;28;20100;-72
2022/08/14 01:02:43;;;;;;;5.35;3.10;;;24.10;74.30;;;;;;5055597;28;20048;-72
2022/08/14 01:05:22;;;;;;;6.47;3.25;;;24.00;74.30;;;;;;5055605;28;20028;-71
2022/08/14 01:07:58;;;;;;;4.97;3.03;;;24.00;74.20;;;;;;5055914;28;20075;-72
2022/08/14 01:13:15;;;;;;;5.15;3.22;;;23.90;73.80;;;;;;5055500;28;20079;-73
2022/08/14 01:15:42;;;;;;;5.75;3.47;;;23.90;74.10;;;;;;5053877;28;20075;-72
2022/08/14 01:21:05;;;;;;;7.07;4.10;;;23.90;73.20;;;;;;5055592;28;20059;-73
2022/08/14 01:23:37;;;;;;;5.55;3.05;;;23.90;73.60;;;;;;5055420;28;20043;-73
2022/08/14 01:26:03;;;;;;;7.82;3.08;;;23.90;73.20;;;;;;5055141;28;20470;-72
2022/08/14 01:28:33;;;;;;;6.97;2.90;;;23.90;72.90;;;;;;5055351;28;20025;-72
2022/08/14 01:30:59;;;;;;;4.80;2.97;;;23.80;72.20;;;;;;5055065;28;20028;-72
2022/08/14 01:33:30;;;;;;;4.13;2.78;;;23.80;71.50;;;;;;5055047;28;20036;-73
2022/08/14 01:35:59;;;;;;;7.07;2.70;;;23.70;71.70;;;;;;5054793;28;20017;-73
2022/08/14 01:38:33;;;;;;;6.03;3.15;;;23.70;70.90;;;;;;5055049;28;20087;-73
2022/08/14 01:41:01;;;;;;;3.65;2.45;;;23.60;70.60;;;;;;5054873;28;20075;-73
2022/08/14 01:43:29;;;;;;;4.10;2.53;;;23.60;70.50;;;;;;5054919;28;20024;-73
2022/08/14 01:45:57;;;;;;;3.72;2.33;;;23.50;69.90;;;;;;5054789;28;20024;-74
2022/08/14 01:48:24;;;;;;;6.13;2.90;;;23.50;69.60;;;;;;5054881;28;20025;-73
2022/08/14 01:50:50;;;;;;;4.50;2.63;;;23.50;69.20;;;;;;5054675;28;20029;-73
2022/08/14 01:53:16;;;;;;;6.35;2.75;;;23.60;68.90;;;;;;5054718;28;20108;-73
2022/08/14 01:55:42;;;;;;;5.28;2.78;;;23.60;68.70;;;;;;5054416;28;20041;-73
2022/08/14 01:58:14;;;;;;;7.05;2.85;;;23.50;68.70;;;;;;5054447;28;20087;-73
2022/08/14 02:00:40;;;;;;;6.03;2.67;;;23.50;67.80;;;;;;5054804;28;20347;-73
2022/08/14 02:03:06;;;;;;;7.13;2.55;;;23.40;68.30;;;;;;5053205;28;20119;-73
2022/08/14 02:05:33;;;;;;;5.80;2.75;;;23.40;68.40;;;;;;5053056;28;20021;-74
2022/08/14 02:07:59;;;;;;;3.97;2.28;;;23.40;68.10;;;;;;5054113;28;20108;-73
2022/08/14 02:10:27;;;;;;;5.07;2.50;;;23.30;67.60;;;;;;5054417;28;20445;-74
2022/08/14 02:12:55;;;;;;;4.40;2.25;;;23.30;67.50;;;;;;5054134;28;20029;-71
2022/08/14 02:15:21;;;;;;;5.40;2.63;;;23.30;67.40;;;;;;5052722;28;20390;-73
2022/08/14 02:17:48;;;;;;;6.75;2.58;;;23.20;67.20;;;;;;5052988;28;20025;-72
2022/08/14 02:20:14;;;;;;;4.78;2.22;;;23.20;67.10;;;;;;5054161;28;20029;-73
2022/08/14 02:22:41;;;;;;;6.07;2.78;;;23.20;66.80;;;;;;5052916;28;20389;-73
2022/08/14 02:25:07;;;;;;;6.40;2.65;;;23.20;66.90;;;;;;5053809;28;20028;-73
2022/08/14 02:27:36;;;;;;;4.30;2.38;;;23.20;67.10;;;;;;5054255;28;20048;-73
2022/08/14 02:30:03;;;;;;;6.90;2.63;;;23.20;67.40;;;;;;5052566;28;20021;-74
2022/08/14 02:32:30;;;;;;;5.47;3.03;;;23.20;67.40;;;;;;5053973;28;20020;-72
2022/08/14 02:34:56;;;;;;;8.30;3.20;;;23.20;67.50;;;;;;5053777;28;20025;-72
2022/08/14 02:37:22;;;;;;;3.97;2.20;;;23.10;67.70;;;;;;5053797;28;20087;-72
2022/08/14 02:39:49;;;;;;;4.10;2.53;;;23.10;67.80;;;;;;5053705;28;20024;-73
2022/08/14 02:42:21;;;;;;;4.75;2.33;;;23.10;67.10;;;;;;5053711;28;20030;-73
2022/08/14 02:44:48;;;;;;;5.00;2.15;;;23.10;66.80;;;;;;5053898;28;20051;-71
2022/08/14 02:47:14;;;;;;;3.90;2.55;;;23.10;66.20;;;;;;5054113;28;20367;-72
2022/08/14 02:49:40;;;;;;;4.40;2.40;;;23.10;65.60;;;;;;5053912;28;20029;-73
2022/08/14 02:52:07;;;;;;;4.53;2.30;;;23.10;65.70;;;;;;5053670;28;20109;-73
2022/08/14 02:54:34;;;;;;;5.70;2.60;;;23.10;65.40;;;;;;5053801;28;20486;-73
2022/08/14 02:57:04;;;;;;;3.85;2.40;;;23.10;65.10;;;;;;5053536;28;20125;-73
2022/08/14 02:59:31;;;;;;;4.50;2.70;;;23.00;65.00;;;;;;5053717;28;20437;-72
2022/08/14 03:01:58;;;;;;;7.03;2.60;;;22.90;64.90;;;;;;5053747;28;20060;-73
2022/08/14 03:04:27;;;;;;;7.43;2.28;;;22.80;65.30;;;;;;5053726;28;20040;-72
2022/08/14 03:06:53;;;;;;;5.13;2.50;;;22.90;65.50;;;;;;5053449;28;20017;-73
2022/08/14 03:09:19;;;;;;;4.88;2.67;;;22.80;65.50;;;;;;5053701;28;20021;-73
2022/08/14 03:11:45;;;;;;;4.93;2.40;;;22.80;65.20;;;;;;5053585;28;20470;-73
2022/08/14 03:14:11;;;;;;;6.25;2.10;;;22.80;65.80;;;;;;5053857;28;20025;-73
2022/08/14 03:16:39;;;;;;;4.72;2.30;;;22.80;65.30;;;;;;5053470;28;20017;-75
2022/08/14 03:19:06;;;;;;;4.15;2.30;;;22.80;65.30;;;;;;5052867;28;20108;-72
2022/08/14 03:21:33;;;;;;;4.10;2.28;;;22.70;65.00;;;;;;5053198;28;20040;-73
2022/08/14 03:26:34;;;;;;;5.07;2.20;;;22.70;64.60;;;;;;5053278;28;20025;-73
2022/08/14 03:29:01;;;;;;;3.60;2.22;;;22.70;64.50;;;;;;5053381;28;20053;-72
2022/08/14 03:31:27;;;;;;;6.35;2.40;;;22.70;64.50;;;;;;5053373;28;20108;-72
2022/08/14 03:33:54;;;;;;;3.50;2.10;;;22.60;64.90;;;;;;5054791;28;20071;-72
2022/08/14 03:36:21;;;;;;;4.97;2.50;;;22.50;64.90;;;;;;5062438;28;20026;-72
2022/08/14 03:38:51;;;;;;;4.40;2.70;;;22.50;65.00;;;;;;5069351;28;20021;-72
2022/08/14 03:41:19;;;;;;;3.40;2.30;;;22.40;65.10;;;;;;5059383;28;20123;-75
2022/08/14 03:43:47;;;;;;;8.73;2.38;;;22.40;65.30;;;;;;5052714;28;20436;-73
2022/08/14 03:46:13;;;;;;;4.78;2.30;;;22.40;65.20;;;;;;5053357;28;20035;-75
2022/08/14 03:48:41;;;;;;;7.75;2.47;;;22.40;65.00;;;;;;5052203;28;20017;-73
2022/08/14 03:51:08;;;;;;;7.78;2.63;;;22.40;64.90;;;;;;5053295;28;20032;-72
2022/08/14 03:53:36;;;;;;;4.90;2.28;;;22.40;64.80;;;;;;5053369;28;20021;-72
2022/08/14 03:56:03;;;;;;;6.72;2.40;;;22.30;64.60;;;;;;5067376;22;20115;-75
2022/08/14 03:58:31;;;;;;;5.32;2.20;;;22.40;64.70;;;;;;5052602;28;20025;-76
2022/08/14 04:00:57;;;;;;;3.47;2.22;;;22.40;64.70;;;;;;5052579;28;20370;-73
2022/08/14 04:03:25;;;;;;;5.57;2.55;;;22.40;64.80;;;;;;5052261;28;20021;-75
2022/08/14 04:05:52;;;;;;;3.05;2.20;;;22.50;64.80;;;;;;5052664;28;20044;-76
2022/08/14 04:08:19;;;;;;;4.60;2.42;;;22.40;64.90;;;;;;5052475;28;20040;-75
2022/08/14 04:10:45;;;;;;;8.13;2.28;;;22.40;64.90;;;;;;5052255;28;20029;-76
2022/08/14 04:13:15;;;;;;;4.65;2.40;;;22.30;65.00;;;;;;5051150;28;20025;-76
2022/08/14 04:15:41;;;;;;;4.00;2.30;;;22.30;65.30;;;;;;5052341;28;20182;-76
2022/08/14 04:18:07;;;;;;;6.35;2.65;;;22.30;65.30;;;;;;5052216;28;20374;-75
2022/08/14 04:20:38;;;;;;;4.13;2.20;;;22.30;65.30;;;;;;5052137;28;20021;-75
2022/08/14 04:23:05;;;;;;;3.85;2.42;;;22.20;65.50;;;;;;5052175;28;20079;-76
2022/08/14 04:25:35;;;;;;;4.75;2.38;;;22.20;65.50;;;;;;5052041;28;20111;-75
2022/08/14 04:28:04;;;;;;;4.40;2.70;;;22.20;65.60;;;;;;5052091;28;20057;-75
2022/08/14 04:30:38;;;;;;;8.38;2.50;;;22.20;65.60;;;;;;5052757;28;20049;-76
2022/08/14 04:33:07;;;;;;;;;;;22.10;64.80;;;;;;5056505;28;20017;-74
2022/08/14 04:35:34;;;;;;;5.40;2.50;;;22.10;66.10;;;;;;5056720;28;20005;-74
2022/08/14 04:43:36;;;;;;;5.13;2.85;;;22.10;65.70;;;;;;5056139;28;20124;-74
2022/08/14 04:46:03;;;;;;;8.15;2.50;;;22.10;65.80;;;;;;5055550;28;20031;-75
2022/08/14 04:48:29;;;;;;;6.50;2.95;;;22.10;66.50;;;;;;5055606;28;20029;-75
2022/08/14 04:50:55;;;;;;;4.78;2.67;;;22.10;66.30;;;;;;5055558;28;20052;-75
2022/08/14 04:53:27;;;;;;;5.13;2.30;;;22.20;66.90;;;;;;5055691;28;20037;-74
2022/08/14 04:55:54;;;;;;;5.45;2.60;;;22.30;66.30;;;;;;5055245;28;20045;-73
2022/08/14 04:58:25;;;;;;;5.85;2.50;;;22.20;66.00;;;;;;5055458;28;20061;-75
2022/08/14 05:00:52;;;;;;;5.18;2.22;;;22.30;66.30;;;;;;5054088;28;20601;-75
2022/08/14 05:03:20;;;;;;;3.95;2.40;;;22.20;66.10;;;;;;5055029;28;20025;-76
2022/08/14 05:05:51;;;;;;;3.92;2.22;;;22.30;66.00;;;;;;5054937;28;20104;-74
2022/08/14 05:08:17;;;;;;;5.40;2.60;;;22.30;65.80;;;;;;5055122;28;20103;-74
2022/08/14 05:10:51;;;;;;;6.28;2.50;;;22.30;65.60;;;;;;5055505;28;20023;-76
2022/08/14 05:13:22;;;;;;;4.40;2.40;;;22.40;65.80;;;;;;5055144;28;20075;-75
2022/08/14 05:15:49;;;;;;;5.00;2.33;;;22.50;65.90;;;;;;5055108;28;20025;-76
2022/08/14 05:18:18;;;;;;;5.03;2.30;;;22.50;65.60;;;;;;5055012;28;20021;-76
2022/08/14 05:20:47;;;;;;;4.10;2.20;;;22.50;65.40;;;;;;5054964;28;20074;-76
2022/08/14 05:23:18;;;;;;;7.30;2.50;;;22.50;65.10;;;;;;5054998;28;20108;-75
2022/08/14 05:25:46;;;;;;;5.38;2.28;;;22.60;63.90;;;;;;5055906;28;20017;-75
2022/08/14 05:28:21;;;;;;;4.57;2.70;;;22.60;64.60;;;;;;5056183;28;20040;-76
2022/08/14 05:30:47;;;;;;;4.72;2.22;;;22.70;64.50;;;;;;5061590;28;20108;-75
2022/08/14 05:33:15;;;;;;;3.70;2.20;;;22.60;64.00;;;;;;5057672;28;20021;-76
2022/08/14 05:35:42;;;;;;;5.72;2.20;;;22.70;63.90;;;;;;5059276;28;20045;-77
2022/08/14 05:38:09;;;;;;;5.85;2.42;;;22.80;63.50;;;;;;5055957;28;20020;-77
2022/08/14 05:40:35;;;;;;;4.80;2.08;;;22.90;63.00;;;;;;5054994;28;20029;-76
2022/08/14 05:43:02;;;;;;;4.93;2.20;;;23.00;62.80;;;;;;5054587;28;20083;-76
2022/08/14 05:45:28;;;;;;;4.32;2.20;;;23.10;62.10;;;;;;5054764;28;20530;-77
2022/08/14 05:47:53;;;;;;;5.10;2.30;;;23.20;62.00;;;;;;5054663;28;20107;-73
2022/08/14 05:50:20;;;;;;;6.30;2.45;;;23.30;61.80;;;;;;5054603;28;20107;-74
2022/08/14 05:52:50;;;;;;;5.07;2.22;;;23.60;61.30;;;;;;5054604;28;20017;-77
2022/08/14 05:55:16;;;;;;;6.35;2.55;;;23.70;60.80;;;;;;5054411;28;20443;-73
2022/08/14 05:57:52;;;;;;;5.75;2.47;;;23.80;60.70;;;;;;5054582;28;20112;-76
2022/08/14 06:00:21;;;;;;;9.65;2.67;;;23.90;60.30;;;;;;5055636;28;20064;-75
2022/08/14 06:02:46;;;;;;;4.43;2.28;;;24.10;60.00;;;;;;5057585;28;20450;-75
2022/08/14 06:05:12;;;;;;;4.07;2.33;;;24.30;59.50;;;;;;5054188;28;20031;-75
2022/08/14 06:07:38;;;;;;;4.55;2.00;;;24.40;59.30;;;;;;5054296;28;20048;-74
2022/08/14 06:10:08;;;;;;;4.70;2.30;;;24.60;58.70;;;;;;5054460;28;20060;-75
2022/08/14 06:12:34;;;;;;;3.75;2.22;;;24.70;58.40;;;;;;5054157;28;20025;-74
2022/08/14 06:15:00;;;;;;;5.13;2.10;;;24.90;58.00;;;;;;5054115;28;20037;-77
2022/08/14 06:17:26;;;;;;;5.53;2.30;;;24.90;57.30;;;;;;5054345;28;20024;-79
2022/08/14 06:19:52;;;;;;;5.05;2.08;;;25.00;57.10;;;;;;5054092;28;20111;-75
2022/08/14 06:22:18;;;;;;;4.25;2.70;;;25.10;56.70;;;;;;5054008;28;20385;-76
2022/08/14 06:24:44;;;;;;;3.63;2.00;;;25.20;56.30;;;;;;5052731;28;20488;-73
2022/08/14 06:27:10;;;;;;;5.13;2.40;;;25.40;55.90;;;;;;5053839;28;20019;-73
2022/08/14 06:29:37;;;;;;;6.07;2.20;;;25.50;55.30;;;;;;5053856;28;20099;-78
2022/08/14 06:32:03;;;;;;;3.78;2.22;;;25.50;55.10;;;;;;5053864;28;20025;-72
2022/08/14 06:34:29;;;;;;;5.10;2.00;;;25.60;54.60;;;;;;5053849;28;20021;-73
2022/08/14 06:36:55;;;;;;;6.43;2.10;;;25.80;54.30;;;;;;5053416;28;20123;-72
2022/08/14 06:39:22;;;;;;;5.78;2.80;;;25.90;54.00;;;;;;5053683;28;20021;-73
2022/08/14 06:41:48;;;;;;;4.63;2.25;;;26.00;53.70;;;;;;5053302;28;20040;-74
2022/08/14 06:44:14;;;;;;;4.72;2.15;;;25.90;53.40;;;;;;5053360;28;20021;-74
2022/08/14 06:46:40;;;;;;;5.28;2.00;;;25.80;53.30;;;;;;5053393;28;20021;-73
2022/08/14 06:49:06;;;;;;;4.63;2.10;;;25.80;53.20;;;;;;5053661;28;20017;-74
2022/08/14 06:51:32;;;;;;;5.20;2.05;;;25.90;53.30;;;;;;5051998;28;20036;-74
2022/08/14 06:53:58;;;;;;;3.85;1.90;;;26.10;52.90;;;;;;5052737;28;20022;-75
2022/08/14 06:56:23;;;;;;;7.15;2.10;;;25.90;52.10;;;;;;5052975;28;20057;-77
2022/08/14 06:58:49;;;;;;;4.25;2.03;;;26.00;52.10;;;;;;5053186;28;20013;-75
2022/08/14 07:06:44;;;;;;;3.20;1.90;;;26.20;51.80;;;;;;5052978;28;20412;-73
2022/08/14 07:09:10;;;;;;;3.83;1.90;;;26.50;51.50;;;;;;5053046;28;20032;-74
2022/08/14 07:11:37;;;;;;;4.75;2.20;;;26.60;51.30;;;;;;5052859;28;20478;-72
2022/08/14 07:14:03;;;;;;;4.28;1.98;;;26.80;49.50;;;;;;5052957;28;20432;-74
2022/08/14 07:16:30;;;;;;;7.88;1.90;;;26.80;50.90;;;;;;5052757;28;20386;-75
2022/08/14 07:18:56;;;;;;;3.97;2.08;;;26.80;50.60;;;;;;5053110;28;20021;-75
2022/08/14 07:21:21;;;;;;;4.50;2.08;;;26.70;51.10;;;;;;5052898;28;20489;-76
2022/08/14 07:23:47;;;;;;;4.03;2.35;;;26.80;51.20;;;;;;5053118;28;20021;-77
2022/08/14 07:26:13;;;;;;;3.97;2.00;;;26.90;50.70;;;;;;5051509;28;20029;-75
2022/08/14 07:28:39;;;;;;;3.42;1.95;;;27.00;50.50;;;;;;5052750;28;20024;-75
2022/08/14 07:31:08;;;;;;;4.00;2.20;;;27.10;50.80;;;;;;5052764;28;20056;-73
2022/08/14 07:33:57;;;;;;;4.57;1.88;;;27.20;50.80;;;;;;5052693;28;20471;-74
2022/08/14 07:36:22;;;;;;;5.10;2.45;;;27.10;50.00;;;;;;5044825;28;20041;-72
2022/08/14 07:38:49;;;;;;;5.13;2.40;;;26.90;50.20;;;;;;5053123;28;20036;-73
2022/08/14 07:41:15;;;;;;;4.47;2.40;;;27.00;50.50;;;;;;5051389;28;20037;-73
2022/08/14 07:43:42;;;;;;;5.25;2.20;;;26.90;50.30;;;;;;5052632;28;20382;-73
2022/08/14 07:46:12;;;;;;;4.90;2.30;;;26.90;50.80;;;;;;5051801;28;20020;-77
2022/08/14 07:48:40;;;;;;;4.60;2.15;;;27.00;50.60;;;;;;5052576;28;20370;-75
2022/08/14 07:51:06;;;;;;;7.65;2.30;;;27.00;50.30;;;;;;5051365;28;20021;-74
2022/08/14 07:53:32;;;;;;;5.68;2.05;;;27.00;50.20;;;;;;5052780;28;20104;-74
2022/08/14 07:55:58;;;;;;;3.15;2.05;;;26.90;50.00;;;;;;5051515;28;20474;-73
2022/08/14 07:58:24;;;;;;;3.25;1.80;;;26.90;49.80;;;;;;5052963;28;20086;-73
2022/08/14 08:00:54;;;;;;;3.00;1.98;;;26.80;49.70;;;;;;5052588;28;20032;-73
2022/08/14 08:03:21;;;;;;;5.18;2.10;;;26.80;49.90;;;;;;5052781;28;20028;-73
2022/08/14 08:05:48;;;;;;;2.45;2.00;;;26.80;49.60;;;;;;5053359;28;20017;-76
2022/08/14 08:08:16;;;;;;;3.80;2.20;;;26.80;49.50;;;;;;5056665;28;20129;-74
2022/08/14 08:10:43;;;;;;;6.85;2.20;;;26.90;49.40;;;;;;5056491;28;20055;-74
2022/08/14 08:13:11;;;;;;;3.45;2.10;;;27.10;49.10;;;;;;5056214;28;20466;-74
2022/08/14 08:15:42;;;;;;;4.80;1.88;;;27.10;49.00;;;;;;5055992;28;20025;-72
2022/08/14 08:18:09;;;;;;;12.05;2.05;;;27.10;48.90;;;;;;5056375;28;20167;-74
2022/08/14 08:20:38;;;;;;;5.97;2.15;;;27.10;48.60;;;;;;5056186;28;20040;-73
2022/08/14 08:23:05;;;;;;;3.83;2.10;;;27.00;48.20;;;;;;5056014;28;20138;-75
2022/08/14 08:25:34;;;;;;;3.20;2.05;;;26.90;48.10;;;;;;5056067;28;20021;-76
2022/08/14 08:28:07;;;;;;;4.70;1.98;;;26.90;48.80;;;;;;5055963;28;20056;-72
2022/08/14 08:30:36;;;;;;;4.15;2.13;;;27.00;48.50;;;;;;5054591;28;20547;-73
2022/08/14 08:33:04;;;;;;;3.97;1.92;;;26.90;48.20;;;;;;5055687;28;20456;-74
2022/08/14 08:35:33;;;;;;;4.47;1.92;;;27.00;48.20;;;;;;5054392;28;20021;-76
2022/08/14 08:38:26;;;;;;;3.70;1.98;;;26.90;47.90;;;;;;5055588;28;20029;-77
2022/08/14 08:40:55;;;;;;;3.15;1.95;;;26.90;47.10;;;;;;5053320;28;20051;-76
2022/08/14 08:43:30;;;;;;;4.45;2.03;;;26.90;47.80;;;;;;5055872;28;20031;-76
2022/08/14 08:46:00;;;;;;;5.18;2.00;;;26.90;47.80;;;;;;5054360;28;20033;-76
2022/08/14 08:48:47;;;;;;;5.22;2.10;;;26.90;47.90;;;;;;5055557;28;20037;-76
2022/08/14 08:51:24;;;;;;;5.03;2.20;;;27.00;46.20;;;;;;5055995;28;20403;-75
2022/08/14 08:54:05;;;;;;;5.75;2.20;;;27.10;46.50;;;;;;5055614;28;20390;-74
2022/08/14 08:56:44;;;;;;;7.50;6.07;;;27.10;47.70;;;;;;5055210;28;20122;-75
2022/08/14 08:59:15;;;;;;;3.63;2.33;;;27.20;45.90;;;;;;5055832;28;20108;-75
2022/08/14 09:01:45;;;;;;;4.68;2.38;;;27.20;47.10;;;;;;5055400;28;20087;-76
2022/08/14 09:04:13;;;;;;;4.30;2.85;;;27.20;47.40;;;;;;5055522;28;20029;-74
2022/08/14 09:06:51;;;;;;;5.00;2.22;;;27.30;47.40;;;;;;5055138;28;20077;-75
2022/08/14 09:09:31;;;;;;;2.85;1.92;;;27.40;47.10;;;;;;5054140;28;20382;-75
2022/08/14 09:12:00;;;;;;;5.28;2.40;;;27.40;46.90;;;;;;5055396;28;20039;-76
2022/08/14 09:14:28;;;;;;;4.53;2.92;;;27.40;47.00;;;;;;5055348;28;20044;-76
2022/08/14 09:16:55;;;;;;;3.10;2.13;;;27.40;47.20;;;;;;5053270;28;20037;-76
2022/08/14 09:19:21;;;;;;;4.55;2.17;;;27.50;46.70;;;;;;5054637;28;20025;-75
2022/08/14 09:21:47;;;;;;;5.85;2.30;;;27.60;46.70;;;;;;5055001;28;20108;-76
2022/08/14 09:24:14;;;;;;;4.55;2.17;;;27.60;45.80;;;;;;5054858;28;20367;-77
2022/08/14 09:26:41;;;;;;;4.03;2.20;;;27.60;45.90;;;;;;5054957;28;20029;-75
2022/08/14 09:29:08;;;;;;;6.88;2.92;;;27.70;45.80;;;;;;5054836;28;20035;-75
2022/08/14 09:31:36;;;;;;;3.65;2.42;;;27.80;45.80;;;;;;5055059;28;20332;-76
2022/08/14 09:34:21;;;;;;;5.97;2.60;;;27.80;45.70;;;;;;5054730;28;20091;-75
2022/08/14 09:37:17;;;;;;;4.88;2.40;;;27.80;43.80;;;;;;5054919;28;20036;-76
2022/08/14 09:40:07;;;;;;;7.00;2.28;;;27.90;43.10;;;;;;5053655;28;20032;-77
2022/08/14 09:42:42;;;;;;;3.33;2.10;;;28.00;43.10;;;;;;5054372;28;20440;-75
2022/08/14 09:45:22;;;;;;;2.58;1.80;;;28.00;43.20;;;;;;5054589;28;21436;-76
2022/08/14 09:47:52;;;;;;;3.05;2.15;;;28.00;43.30;;;;;;5054761;28;20021;-77
2022/08/14 09:50:27;;;;;;;4.30;2.42;;;28.00;44.80;;;;;;5054664;28;20584;-72
2022/08/14 09:53:03;;;;;;;4.95;2.47;;;28.10;43.40;;;;;;5054331;28;20481;-73
2022/08/14 09:55:34;;;;;;;6.93;3.90;;;28.10;43.30;;;;;;5054240;28;20029;-74
2022/08/14 09:58:11;;;;;;;5.82;2.92;;;28.20;44.40;;;;;;5054514;28;20025;-73
2022/08/14 10:00:43;;;;;;;3.83;2.78;;;28.30;43.80;;;;;;5054189;28;20474;-75
2022/08/14 10:03:08;;;;;;;4.63;2.58;;;28.30;43.80;;;;;;5054096;28;20029;-74
2022/08/14 10:05:35;;;;;;;5.32;2.58;;;28.30;43.70;;;;;;5054219;28;20390;-74
2022/08/14 10:08:03;;;;;;;3.90;2.20;;;28.30;43.70;;;;;;5054009;28;20025;-73
2022/08/14 10:10:31;;;;;;;3.85;2.30;;;28.40;43.50;;;;;;5054047;28;20104;-75
2022/08/14 10:12:59;;;;;;;5.38;2.40;;;28.40;42.90;;;;;;5053978;28;20044;-73
2022/08/14 10:15:28;;;;;;;10.15;2.80;;;28.50;43.50;;;;;;5053863;28;20021;-75
2022/08/14 10:18:06;;;;;;;4.60;2.63;;;28.60;42.90;;;;;;5053939;28;20025;-75
2022/08/14 10:20:41;;;;;;;4.57;2.65;;;28.70;42.80;;;;;;5055274;28;20032;-74
2022/08/14 10:23:12;;;;;;;5.55;2.50;;;28.70;41.80;;;;;;5056384;28;20029;-75
2022/08/14 10:25:49;;;;;;;4.07;2.33;;;28.80;42.70;;;;;;5055385;28;20056;-75
2022/08/14 10:28:17;;;;;;;3.38;2.00;;;28.90;42.50;;;;;;5059690;28;20079;-76
2022/08/14 10:30:47;;;;;;;11.70;3.22;;;28.90;42.40;;;;;;5060857;28;20025;-74
2022/08/14 10:33:31;;;;;;;4.85;2.35;;;29.00;42.60;;;;;;5059489;28;20037;-75
2022/08/14 10:36:01;;;;;;;7.28;2.55;;;29.00;42.40;;;;;;5055218;28;20104;-75
2022/08/14 10:38:31;;;;;;;3.83;2.40;;;29.10;42.20;;;;;;5053736;28;20036;-75
2022/08/14 10:41:11;;;;;;;4.80;2.15;;;29.20;42.30;;;;;;5053726;28;20116;-75
2022/08/14 10:43:37;;;;;;;3.72;2.30;;;29.20;42.10;;;;;;5053641;28;20021;-76
2022/08/14 10:46:12;;;;;;;6.20;2.50;;;29.30;42.10;;;;;;5052424;28;20386;-76
2022/08/14 10:48:38;;;;;;;4.35;2.30;;;29.40;41.80;;;;;;5052507;28;20379;-75
2022/08/14 10:51:04;;;;;;;8.13;2.60;;;29.50;42.10;;;;;;5054798;28;20074;-77
2022/08/14 10:53:33;;;;;;;4.70;2.70;;;29.50;41.70;;;;;;5053831;28;20127;-76
2022/08/14 10:56:02;;;;;;;3.42;2.25;;;29.60;41.80;;;;;;5053257;28;20384;-75
2022/08/14 10:58:30;;;;;;;2.97;2.10;;;29.70;42.00;;;;;;5053441;28;20024;-75
2022/08/14 11:00:59;;;;;;;5.13;2.45;;;29.80;41.80;;;;;;5053446;28;20462;-77
2022/08/14 11:03:40;;;;;;;3.33;1.92;;;29.90;41.60;;;;;;5053297;28;20029;-75
2022/08/14 11:06:21;;;;;;;4.35;2.40;;;29.90;40.40;;;;;;5053309;28;20037;-76
2022/08/14 11:08:48;;;;;;;3.17;2.22;;;30.00;40.90;;;;;;5053071;28;20044;-76
2022/08/14 11:11:14;;;;;;;3.42;2.55;;;30.10;41.00;;;;;;5053138;28;20166;-76
2022/08/14 11:13:45;;;;;;;5.45;2.67;;;30.20;40.90;;;;;;5053188;28;20071;-76
2022/08/14 11:16:13;;;;;;;3.45;2.10;;;30.30;40.80;;;;;;5053568;28;20052;-76
2022/08/14 11:18:42;;;;;;;6.68;2.60;;;30.40;40.70;;;;;;5052793;28;20496;-76
2022/08/14 11:21:08;;;;;;;4.05;2.40;;;30.50;40.10;;;;;;5052909;28;20086;-75
2022/08/14 11:23:38;;;;;;;3.40;2.40;;;30.50;39.70;;;;;;5052838;28;20033;-77
2022/08/14 11:26:05;;;;;;;3.53;2.42;;;30.60;39.80;;;;;;5052699;28;20465;-76
2022/08/14 11:28:38;;;;;;;4.10;2.50;;;30.70;39.50;;;;;;5052694;28;20028;-77
2022/08/14 11:31:06;;;;;;;4.72;2.47;;;30.80;39.50;;;;;;5052655;28;20017;-75
2022/08/14 11:33:34;;;;;;;13.40;3.33;;;30.80;39.60;;;;;;5053185;28;20367;-77
2022/08/14 11:36:04;;;;;;;4.57;2.30;;;30.90;39.20;;;;;;5052790;28;20066;-75
2022/08/14 11:38:40;;;;;;;3.55;2.10;;;31.00;38.90;;;;;;5052668;28;20040;-76
2022/08/14 11:41:08;;;;;;;3.65;2.50;;;31.10;38.90;;;;;;5054129;28;20079;-75
2022/08/14 11:43:41;;;;;;;4.25;2.65;;;31.10;38.90;;;;;;5056768;28;20025;-75
2022/08/14 11:46:12;;;;;;;4.95;2.90;;;31.20;38.40;;;;;;5056651;28;20029;-76
2022/08/14 11:48:51;;;;;;;4.05;2.80;;;31.30;38.20;;;;;;5057058;28;20040;-76
2022/08/14 11:51:23;;;;;;;4.43;2.53;;;31.40;38.00;;;;;;5056511;28;20071;-75
2022/08/14 11:54:12;;;;;;;4.43;2.60;;;31.50;38.30;;;;;;5056924;28;20025;-77
2022/08/14 11:56:44;;;;;;;5.03;3.00;;;31.70;38.30;;;;;;5056586;28;20154;-77
2022/08/14 11:59:16;;;;;;;5.38;2.50;;;31.70;38.30;;;;;;5056817;28;20080;-74
2022/08/14 12:01:45;;;;;;;4.90;2.80;;;31.90;37.80;;;;;;5056662;28;20225;-74
2022/08/14 12:04:18;;;;;;;4.32;2.50;;;31.90;37.50;;;;;;5056783;28;20443;-75
2022/08/14 12:06:47;;;;;;;;;;;32.00;37.80;;;;;;5056619;28;20021;-74
2022/08/14 12:09:13;;;;;;;4.28;2.50;;;32.10;36.80;;;;;;5056602;28;19908;-76
2022/08/14 12:11:40;;;;;;;4.18;2.72;;;32.10;37.10;;;;;;5056460;28;20104;-73
2022/08/14 12:14:07;;;;;;;3.95;2.90;;;32.20;37.10;;;;;;5056355;28;20025;-75
2022/08/14 12:16:34;;;;;;;4.15;2.75;;;32.20;36.60;;;;;;5056283;28;20486;-75
2022/08/14 12:19:01;;;;;;;4.63;2.42;;;32.10;36.70;;;;;;5056161;28;20528;-74
2022/08/14 12:21:26;;;;;;;4.47;2.67;;;32.20;36.90;;;;;;5056182;28;20053;-76
2022/08/14 12:24:07;;;;;;;4.40;2.60;;;32.20;36.70;;;;;;5056057;28;20083;-76
2022/08/14 12:26:33;;;;;;;3.60;2.33;;;32.20;36.90;;;;;;5055854;28;20022;-74
2022/08/14 12:29:07;;;;;;;3.85;2.55;;;32.30;36.30;;;;;;5055991;28;20033;-74
2022/08/14 12:31:34;;;;;;;6.72;2.83;;;32.40;36.00;;;;;;5057124;28;20033;-75
2022/08/14 12:34:02;;;;;;;4.80;2.55;;;32.50;35.10;;;;;;5055149;28;20075;-74
2022/08/14 12:36:29;;;;;;;5.38;2.50;;;32.70;34.90;;;;;;5056001;28;20021;-76
2022/08/14 12:38:56;;;;;;;4.90;2.70;;;32.80;34.70;;;;;;5055866;28;20077;-74
2022/08/14 12:41:23;;;;;;;3.88;2.60;;;32.80;34.00;;;;;;5055829;28;20036;-75
2022/08/14 12:43:55;;;;;;;3.80;2.50;;;32.80;36.00;;;;;;5056101;28;20470;-75
2022/08/14 12:46:28;;;;;;;6.95;2.72;;;32.80;38.10;;;;;;5055978;28;20025;-75
2022/08/14 12:48:55;;;;;;;4.85;2.58;;;32.70;39.00;;;;;;5056993;28;20117;-73
2022/08/14 12:51:24;;;;;;;4.25;2.53;;;32.60;39.30;;;;;;5058169;28;20076;-74
2022/08/14 12:53:51;;;;;;;6.38;2.63;;;32.70;39.50;;;;;;5057100;28;20021;-76
2022/08/14 12:56:19;;;;;;;5.22;2.63;;;32.70;39.70;;;;;;5054957;28;20122;-74
2022/08/14 12:58:50;;;;;;;10.25;2.90;;;32.70;39.70;;;;;;5055562;28;20059;-77
2022/08/14 13:01:25;;;;;;;4.55;2.95;;;32.70;40.10;;;;;;5055605;28;20117;-77
2022/08/14 13:04:04;;;;;;;5.78;2.63;;;32.80;40.00;;;;;;5055399;28;20143;-75
2022/08/14 13:06:30;;;;;;;5.28;2.70;;;32.80;40.20;;;;;;5055058;28;20112;-75
2022/08/14 13:08:57;;;;;;;3.95;2.60;;;32.80;40.50;;;;;;5053909;28;20102;-75
2022/08/14 13:11:28;;;;;;;5.05;2.63;;;32.80;40.60;;;;;;5055222;28;20037;-76
2022/08/14 13:13:58;;;;;;;6.10;2.50;;;32.80;40.40;;;;;;5055084;28;20017;-77
2022/08/14 13:16:27;;;;;;;3.42;2.35;;;32.80;40.60;;;;;;5055509;28;20029;-76